createdAt,value
2023-05-06T00:01:49.458Z,101093.16
2023-05-06T00:04:17.346Z,101091.95
2023-05-06T00:06:45.105Z,101084.67
2023-05-06T00:09:13.486Z,101086.48
2023-05-06T00:11:41.481Z,101082.87
2023-05-06T00:14:09.476Z,101084.25
2023-05-06T00:16:37.323Z,101081.41
2023-05-06T00:19:05.946Z,101079.27
2023-05-06T00:21:33.897Z,101082.85
2023-05-06T00:24:01.724Z,101084.77
2023-05-06T00:26:29.449Z,101085.07
2023-05-06T00:28:57.176Z,101086.01
2023-05-06T00:31:25.050Z,101089.56
2023-05-06T00:33:52.904Z,101090.09
2023-05-06T00:36:20.656Z,101089.79
2023-05-06T00:38:48.358Z,101089.35
2023-05-06T00:41:16.345Z,101092.45
2023-05-06T00:43:44.190Z,101094.91
2023-05-06T00:46:15.496Z,101093.98
2023-05-06T00:48:44.797Z,101094.98
2023-05-06T00:51:12.880Z,101093.25
2023-05-06T00:53:41.220Z,101092.83
2023-05-06T00:56:09.276Z,101096.15
2023-05-06T00:58:37.936Z,101093.27
2023-05-06T01:01:05.807Z,101092.27
2023-05-06T01:03:33.788Z,101092.73
2023-05-06T01:06:09.097Z,101091.85
2023-05-06T01:08:57.657Z,101094.25
2023-05-06T01:11:53.013Z,101099.66
2023-05-06T01:14:24.509Z,101100.09
2023-05-06T01:17:00.231Z,101098.08
2023-05-06T01:19:48.958Z,101092.77
2023-05-06T01:22:17.109Z,101098.59
2023-05-06T01:24:47.166Z,101105.34
2023-05-06T01:27:16.807Z,101105.16
2023-05-06T01:29:46.256Z,101105.82
2023-05-06T01:32:35.190Z,101109.37
2023-05-06T01:35:22.619Z,101107.94
2023-05-06T01:38:03.316Z,101110.73
2023-05-06T01:40:33.296Z,101111.21
2023-05-06T01:43:04.981Z,101112.23
2023-05-06T01:45:35.782Z,101114.05
2023-05-06T01:48:05.679Z,101112.06
2023-05-06T01:50:34.803Z,101113.95
2023-05-06T01:53:03.496Z,101114.20
2023-05-06T01:55:32.287Z,101109.95
2023-05-06T01:58:00.201Z,101107.56
2023-05-06T02:00:28.341Z,101103.06
2023-05-06T02:02:56.279Z,101106.89
2023-05-06T02:05:24.311Z,101106.64
2023-05-06T02:07:52.904Z,101103.87
2023-05-06T02:10:20.980Z,101096.83
2023-05-06T02:12:54.183Z,101089.58
2023-05-06T02:15:22.032Z,101090.89
2023-05-06T02:17:49.920Z,101089.87
2023-05-06T02:20:17.692Z,101089.07
2023-05-06T02:22:45.548Z,101084.40
2023-05-06T02:25:13.370Z,101081.73
2023-05-06T02:27:41.413Z,101081.91
2023-05-06T02:30:09.535Z,101083.92
2023-05-06T02:32:37.492Z,101086.28
2023-05-06T02:35:06.242Z,101081.45
2023-05-06T02:37:34.049Z,101081.64
2023-05-06T02:40:02.774Z,101075.31
2023-05-06T02:42:34.486Z,101072.63
2023-05-06T02:45:02.681Z,101076.41
2023-05-06T02:47:33.425Z,101073.61
2023-05-06T02:50:01.365Z,101069.23
2023-05-06T02:52:29.661Z,101069.27
2023-05-06T02:54:57.337Z,101070.21
2023-05-06T02:57:25.256Z,101071.02
2023-05-06T02:59:53.025Z,101072.36
2023-05-06T03:02:20.753Z,101071.04
2023-05-06T03:04:48.489Z,101072.90
2023-05-06T03:07:16.404Z,101071.79
2023-05-06T03:09:44.831Z,101075.45
2023-05-06T03:12:12.868Z,101077.71
2023-05-06T03:14:40.826Z,101078.03
2023-05-06T03:17:08.595Z,101083.60
2023-05-06T03:19:36.959Z,101088.80
2023-05-06T03:22:05.922Z,101099.46
2023-05-06T03:24:34.261Z,101102.16
2023-05-06T03:27:03.575Z,101105.35
2023-05-06T03:29:31.653Z,101103.63
2023-05-06T03:32:05.721Z,101098.68
2023-05-06T03:34:37.873Z,101096.20
2023-05-06T03:37:06.266Z,101096.64
2023-05-06T03:39:34.606Z,101104.81
2023-05-06T03:42:02.721Z,101102.22
2023-05-06T03:44:32.610Z,101104.55
2023-05-06T03:47:00.981Z,101102.02
2023-05-06T03:49:29.886Z,101104.14
2023-05-06T03:51:58.064Z,101100.89
2023-05-06T03:54:26.258Z,101098.31
2023-05-06T03:56:54.351Z,101098.92
2023-05-06T03:59:22.257Z,101103.14
2023-05-06T04:01:51.304Z,101100.02
2023-05-06T04:04:19.598Z,101096.37
2023-05-06T04:06:47.466Z,101093.45
2023-05-06T04:09:15.606Z,101088.91
2023-05-06T04:11:43.628Z,101090.20
2023-05-06T04:14:12.592Z,101090.60
2023-05-06T04:16:40.769Z,101088.09
2023-05-06T04:19:09.289Z,101087.34
2023-05-06T04:21:37.354Z,101082.05
2023-05-06T04:24:08.508Z,101084.64
2023-05-06T04:26:39.061Z,101084.70
2023-05-06T04:29:08.123Z,101084.89
2023-05-06T04:31:39.945Z,101085.51
2023-05-06T04:34:11.119Z,101087.13
2023-05-06T04:36:40.720Z,101089.73
2023-05-06T04:39:36.936Z,101087.42
2023-05-06T04:42:05.541Z,101077.46
2023-05-06T04:44:39.188Z,101080.15
2023-05-06T04:47:09.322Z,101084.00
2023-05-06T04:49:37.662Z,101082.52
2023-05-06T04:52:06.156Z,101080.77
2023-05-06T04:54:34.478Z,101083.04
2023-05-06T04:57:03.350Z,101082.58
2023-05-06T04:59:32.410Z,101081.33
2023-05-06T05:02:00.632Z,101078.71
2023-05-06T05:04:28.598Z,101082.77
2023-05-06T05:06:56.373Z,101082.92
2023-05-06T05:09:24.474Z,101081.61
2023-05-06T05:11:52.767Z,101081.34
2023-05-06T05:14:21.558Z,101080.80
2023-05-06T05:16:49.481Z,101079.05
2023-05-06T05:19:18.978Z,101080.73
2023-05-06T05:21:47.654Z,101080.98
2023-05-06T05:24:16.673Z,101082.48
2023-05-06T05:26:44.546Z,101084.13
2023-05-06T05:29:12.656Z,101086.40
2023-05-06T05:31:40.684Z,101082.84
2023-05-06T05:34:08.606Z,101081.11
2023-05-06T05:36:38.031Z,101077.65
2023-05-06T05:39:09.288Z,101080.23
2023-05-06T05:41:39.501Z,101075.19
2023-05-06T05:44:07.506Z,101070.06
2023-05-06T05:46:36.081Z,101071.15
2023-05-06T05:49:04.356Z,101068.58
2023-05-06T05:51:32.657Z,101060.73
2023-05-06T05:54:01.859Z,101062.35
2023-05-06T05:56:29.614Z,101059.36
2023-05-06T05:58:57.687Z,101058.52
2023-05-06T06:01:25.967Z,101057.09
2023-05-06T06:03:55.042Z,101061.61
2023-05-06T06:06:24.289Z,101057.04
2023-05-06T06:08:52.685Z,101057.59
2023-05-06T06:11:22.460Z,101057.31
2023-05-06T06:13:50.758Z,101059.81
2023-05-06T06:16:18.516Z,101056.02
2023-05-06T06:18:46.318Z,101057.84
2023-05-06T06:21:14.302Z,101062.92
2023-05-06T06:23:42.387Z,101062.00
2023-05-06T06:26:12.361Z,101057.48
2023-05-06T06:28:40.392Z,101054.77
2023-05-06T06:31:08.136Z,101054.23
2023-05-06T06:33:36.277Z,101052.09
2023-05-06T06:36:04.369Z,101056.59
2023-05-06T06:38:32.181Z,101058.14
2023-05-06T06:41:00.473Z,101055.17
2023-05-06T06:43:28.236Z,101051.35
2023-05-06T06:46:01.593Z,101044.89
2023-05-06T06:48:29.537Z,101040.94
2023-05-06T06:50:57.340Z,101043.42
2023-05-06T06:53:25.164Z,101042.00
2023-05-06T06:55:53.008Z,101037.98
2023-05-06T06:58:20.751Z,101036.96
2023-05-06T07:00:48.509Z,101034.93
2023-05-06T07:03:19.522Z,101036.59
2023-05-06T07:05:49.346Z,101033.67
2023-05-06T07:08:17.260Z,101029.81
2023-05-06T07:10:45.158Z,101020.10
2023-05-06T07:13:12.956Z,101020.17
2023-05-06T07:15:40.876Z,101015.63
2023-05-06T07:18:09.698Z,101019.44
2023-05-06T07:20:37.465Z,101020.73
2023-05-06T07:23:05.364Z,101019.31
2023-05-06T07:25:33.224Z,101009.55
2023-05-06T07:28:01.023Z,101007.27
2023-05-06T07:40:40.108Z,101003.80
2023-05-06T07:43:08.446Z,101005.11
2023-05-06T07:45:36.327Z,101004.46
2023-05-06T07:48:04.892Z,101005.30
2023-05-06T07:50:32.829Z,101008.56
2023-05-06T07:53:00.701Z,101014.94
2023-05-06T07:55:28.602Z,101015.98
2023-05-06T07:57:56.435Z,101013.04
2023-05-06T08:00:24.268Z,101005.63
2023-05-06T08:02:52.065Z,101010.16
2023-05-06T08:05:20.134Z,101012.05
2023-05-06T08:07:47.889Z,101010.98
2023-05-06T08:10:15.885Z,101015.24
2023-05-06T08:12:43.734Z,101014.30
2023-05-06T08:15:12.302Z,101017.65
2023-05-06T08:17:40.638Z,101015.85
2023-05-06T08:20:08.903Z,101017.60
2023-05-06T08:22:36.784Z,101019.13
2023-05-06T08:25:04.982Z,101024.42
2023-05-06T08:27:32.821Z,101021.55
2023-05-06T08:30:00.614Z,101023.39
2023-05-06T08:32:28.458Z,101023.48
2023-05-06T08:34:56.216Z,101023.84
2023-05-06T08:37:23.950Z,101023.77
2023-05-06T08:39:51.875Z,101025.52
2023-05-06T08:42:21.631Z,101025.66
2023-05-06T08:44:52.507Z,101021.91
2023-05-06T08:47:20.991Z,101018.42
2023-05-06T08:49:49.566Z,101019.86
2023-05-06T08:52:18.247Z,101029.80
2023-05-06T08:54:46.547Z,101028.10
2023-05-06T08:57:14.554Z,101026.23
2023-05-06T08:59:42.666Z,101026.42
2023-05-06T09:02:11.543Z,101026.33
2023-05-06T09:04:40.432Z,101019.96
2023-05-06T09:07:08.361Z,101017.10
2023-05-06T09:09:36.261Z,101018.84
2023-05-06T09:12:08.401Z,101015.27
2023-05-06T09:14:36.615Z,101014.63
2023-05-06T09:17:46.979Z,101009.26
2023-05-06T09:20:13.561Z,101007.79
2023-05-06T09:22:40.825Z,101004.60
2023-05-06T09:25:08.304Z,101000.52
2023-05-06T09:27:36.114Z,100999.13
2023-05-06T09:30:05.574Z,101007.98
2023-05-06T09:32:32.582Z,101001.67
2023-05-06T09:34:59.808Z,100997.86
2023-05-06T09:37:26.651Z,100995.33
2023-05-06T09:39:55.215Z,100994.98
2023-05-06T09:42:27.284Z,100994.40
2023-05-06T09:44:56.217Z,100990.41
2023-05-06T09:47:27.399Z,100994.93
2023-05-06T09:49:58.624Z,100986.00
2023-05-06T09:52:29.157Z,100977.29
2023-05-06T09:54:56.886Z,100981.16
2023-05-06T09:57:23.862Z,100980.31
2023-05-06T09:59:53.668Z,100980.73
2023-05-06T10:02:22.718Z,100983.77
2023-05-06T10:04:50.027Z,100984.19
2023-05-06T10:07:22.004Z,100978.44
2023-05-06T10:09:50.879Z,100981.44
2023-05-06T10:12:19.340Z,100983.04
2023-05-06T10:14:46.593Z,100979.73
2023-05-06T10:17:13.573Z,100977.52
2023-05-06T10:19:46.181Z,100974.63
2023-05-06T10:22:43.471Z,100968.08
2023-05-06T10:25:18.621Z,100966.37
2023-05-06T10:27:48.600Z,100962.61
2023-05-06T10:30:16.457Z,100955.84
2023-05-06T10:32:44.709Z,100950.03
2023-05-06T10:35:45.838Z,100945.29
2023-05-06T10:38:35.485Z,100941.25
2023-05-06T10:41:03.201Z,100939.75
2023-05-06T10:43:31.713Z,100936.96
2023-05-06T10:46:15.767Z,100929.29
2023-05-06T10:49:03.956Z,100926.52
2023-05-06T10:51:31.159Z,100923.86
2023-05-06T10:53:57.698Z,100920.60
2023-05-06T10:56:24.919Z,100917.20
2023-05-06T10:58:52.939Z,100915.11
2023-05-06T11:01:26.787Z,100917.03
2023-05-06T11:03:54.288Z,100915.77
2023-05-06T11:06:36.261Z,100918.91
2023-05-06T11:09:04.754Z,100921.83
2023-05-06T11:11:47.611Z,100921.87
2023-05-06T11:14:16.301Z,100920.46
2023-05-06T11:16:49.602Z,100921.85
2023-05-06T11:19:23.253Z,100924.36
2023-05-06T11:21:50.934Z,100933.33
2023-05-06T11:24:42.332Z,100941.64
2023-05-06T11:27:10.409Z,100940.91
2023-05-06T11:29:37.337Z,100945.93
2023-05-06T11:32:07.832Z,100941.60
2023-05-06T11:34:36.290Z,100939.55
2023-05-06T11:37:05.625Z,100938.06
2023-05-06T11:39:39.655Z,100938.27
2023-05-06T11:42:08.402Z,100939.87
2023-05-06T11:44:37.199Z,100942.99
2023-05-06T11:47:06.053Z,100943.33
2023-05-06T11:49:41.428Z,100943.80
2023-05-06T11:52:12.166Z,100947.73
2023-05-06T11:54:40.519Z,100948.73
2023-05-06T11:57:07.938Z,100949.87
2023-05-06T11:59:39.656Z,100954.23
2023-05-06T12:02:10.004Z,100958.71
2023-05-06T12:04:41.857Z,100963.54
2023-05-06T12:07:10.311Z,100962.18
2023-05-06T12:09:38.767Z,100961.02
2023-05-06T12:12:06.410Z,100956.39
2023-05-06T12:14:33.428Z,100958.36
2023-05-06T12:17:00.162Z,100957.58
2023-05-06T12:19:28.123Z,100960.73
2023-05-06T12:21:55.043Z,100962.73
2023-05-06T12:24:30.689Z,100958.95
2023-05-06T12:26:57.038Z,100956.45
2023-05-06T12:29:23.411Z,100954.38
2023-05-06T12:32:08.556Z,100951.48
2023-05-06T12:34:37.609Z,100943.93
2023-05-06T12:37:05.288Z,100938.57
2023-05-06T12:39:36.322Z,100933.56
2023-05-06T12:42:03.285Z,100931.29
2023-05-06T12:44:33.972Z,100927.34
2023-05-06T12:47:01.978Z,100924.84
2023-05-06T12:49:46.867Z,100920.95
2023-05-06T12:52:14.001Z,100913.86
2023-05-06T12:54:41.109Z,100907.48
2023-05-06T12:57:07.743Z,100901.80
2023-05-06T12:59:35.742Z,100900.84
2023-05-06T13:02:03.617Z,100904.73
2023-05-06T13:04:30.668Z,100906.54
2023-05-06T13:06:57.950Z,100902.21
2023-05-06T13:09:24.872Z,100903.05
2023-05-06T13:11:51.276Z,100897.63
2023-05-06T13:14:17.633Z,100899.59
2023-05-06T13:16:44.816Z,100892.61
2023-05-06T13:19:21.205Z,100891.66
2023-05-06T13:21:58.119Z,100888.95
2023-05-06T13:24:24.600Z,100887.06
2023-05-06T13:26:51.297Z,100881.63
2023-05-06T13:29:18.351Z,100884.12
2023-05-06T13:31:44.845Z,100885.05
2023-05-06T13:34:11.315Z,100884.83
2023-05-06T13:36:38.222Z,100882.88
2023-05-06T13:39:04.732Z,100886.29
2023-05-06T13:41:32.028Z,100883.17
2023-05-06T13:43:58.466Z,100882.57
2023-05-06T13:46:26.602Z,100878.89
2023-05-06T13:48:53.146Z,100882.33
2023-05-06T13:51:19.565Z,100883.27
2023-05-06T13:53:45.936Z,100884.09
2023-05-06T13:56:12.242Z,100882.90
2023-05-06T13:58:38.922Z,100878.98
2023-05-06T14:01:05.531Z,100879.80
2023-05-06T14:03:31.909Z,100875.07
2023-05-06T14:05:58.418Z,100869.75
2023-05-06T14:08:25.026Z,100867.21
2023-05-06T14:10:51.372Z,100859.64
2023-05-06T14:13:17.857Z,100858.38
2023-05-06T14:15:44.428Z,100857.13
2023-05-06T14:18:11.204Z,100854.31
2023-05-06T14:20:37.636Z,100856.61
2023-05-06T14:23:05.417Z,100854.43
2023-05-06T14:25:32.433Z,100855.08
2023-05-06T14:27:58.915Z,100858.41
2023-05-06T14:30:25.476Z,100863.02
2023-05-06T14:32:51.968Z,100864.70
2023-05-06T14:35:18.373Z,100867.27
2023-05-06T14:37:44.817Z,100868.58
2023-05-06T14:40:11.896Z,100867.00
2023-05-06T14:42:38.234Z,100866.55
2023-05-06T14:45:05.537Z,100866.77
2023-05-06T14:47:32.061Z,100865.90
2023-05-06T14:49:58.475Z,100864.31
2023-05-06T14:52:24.972Z,100865.31
2023-05-06T14:54:52.043Z,100864.92
2023-05-06T14:57:18.544Z,100863.13
2023-05-06T14:59:45.449Z,100862.17
2023-05-06T15:02:12.117Z,100862.39
2023-05-06T15:04:38.667Z,100858.08
2023-05-06T15:07:05.269Z,100857.41
2023-05-06T15:09:31.937Z,100855.59
2023-05-06T15:11:58.386Z,100855.50
2023-05-06T15:14:25.141Z,100861.86
2023-05-06T15:16:55.307Z,100861.01
2023-05-06T15:19:22.191Z,100863.19
2023-05-06T15:21:48.643Z,100862.94
2023-05-06T15:24:15.110Z,100861.15
2023-05-06T15:26:41.501Z,100862.27
2023-05-06T15:29:08.100Z,100862.02
2023-05-06T15:31:38.350Z,100861.42
2023-05-06T15:34:10.384Z,100864.55
2023-05-06T15:36:38.330Z,100870.39
2023-05-06T15:39:05.225Z,100873.94
2023-05-06T15:41:33.763Z,100879.54
2023-05-06T15:44:02.577Z,100878.90
2023-05-06T15:46:31.354Z,100882.63
2023-05-06T15:49:21.152Z,100884.27
2023-05-06T15:51:44.633Z,100884.27
2023-05-06T15:54:11.009Z,100884.38
2023-05-06T15:56:40.977Z,100881.77
2023-05-06T15:59:08.335Z,100885.23
2023-05-06T16:02:19.023Z,100889.91
2023-05-06T16:04:23.698Z,100897.98
2023-05-06T16:06:50.470Z,100899.44
2023-05-06T16:09:16.918Z,100904.15
2023-05-06T16:11:43.489Z,100907.86
2023-05-06T16:14:09.960Z,100905.88
2023-05-06T16:16:36.657Z,100905.91
2023-05-06T16:19:03.962Z,100903.23
2023-05-06T16:21:31.152Z,100907.21
2023-05-06T16:23:57.887Z,100905.09
2023-05-06T16:26:24.401Z,100911.99
2023-05-06T16:28:51.407Z,100913.68
2023-05-06T16:31:18.030Z,100921.46
2023-05-06T16:33:44.543Z,100923.98
2023-05-06T16:36:12.267Z,100926.42
2023-05-06T16:38:38.988Z,100927.08
2023-05-06T16:41:05.372Z,100926.54
2023-05-06T16:43:32.394Z,100926.90
2023-05-06T16:45:59.311Z,100922.50
2023-05-06T16:48:27.519Z,100920.60
2023-05-06T16:50:55.220Z,100925.85
2023-05-06T16:53:22.484Z,100926.44
2023-05-06T16:55:49.408Z,100929.05
2023-05-06T16:58:18.058Z,100934.65
2023-05-06T17:00:44.724Z,100934.59
2023-05-06T17:03:11.150Z,100938.52
2023-05-06T17:05:39.152Z,100939.33
2023-05-06T17:08:06.905Z,100939.35
2023-05-06T17:10:36.326Z,100939.59
2023-05-06T17:13:04.470Z,100933.02
2023-05-06T17:15:31.136Z,100930.14
2023-05-06T17:17:57.542Z,100926.73
2023-05-06T17:20:24.571Z,100923.08
2023-05-06T17:22:50.980Z,100922.23
2023-05-06T17:25:17.482Z,100919.02
2023-05-06T17:27:44.575Z,100919.33
2023-05-06T17:30:12.395Z,100918.89
2023-05-06T17:32:41.709Z,100920.16
2023-05-06T17:35:10.107Z,100920.66
2023-05-06T17:37:37.001Z,100917.55
2023-05-06T17:40:05.222Z,100922.17
2023-05-06T17:42:33.741Z,100929.08
2023-05-06T17:45:00.943Z,100931.92
2023-05-06T17:47:29.357Z,100935.58
2023-05-06T17:49:56.564Z,100941.88
2023-05-06T17:52:25.721Z,100942.25
2023-05-06T17:55:10.765Z,100942.10
2023-05-06T17:57:39.640Z,100940.71
2023-05-06T18:00:06.874Z,100942.80
2023-05-06T18:02:38.529Z,100941.77
2023-05-06T18:05:06.221Z,100939.00
2023-05-06T18:07:35.103Z,100939.75
2023-05-06T18:10:01.548Z,100939.07
2023-05-06T18:12:27.997Z,100943.68
2023-05-06T18:14:56.262Z,100946.41
2023-05-06T18:17:23.680Z,100948.86
2023-05-06T18:19:50.205Z,100950.36
2023-05-06T18:22:16.571Z,100954.94
2023-05-06T18:24:42.918Z,100959.08
2023-05-06T18:27:09.398Z,100962.89
2023-05-06T18:29:35.782Z,100963.19
2023-05-06T18:32:02.370Z,100967.60
2023-05-06T18:34:28.914Z,100963.87
2023-05-06T18:36:57.189Z,100970.52
2023-05-06T18:39:23.848Z,100970.77
2023-05-06T18:41:50.192Z,100975.66
2023-05-06T18:44:16.519Z,100974.45
2023-05-06T18:46:42.851Z,100972.48
2023-05-06T18:49:09.219Z,100973.46
2023-05-06T18:51:36.288Z,100974.35
2023-05-06T18:54:02.791Z,100978.17
2023-05-06T18:56:29.247Z,100980.39
2023-05-06T18:58:55.872Z,100976.23
2023-05-06T19:01:22.467Z,100977.28
2023-05-06T19:03:49.021Z,100975.84
2023-05-06T19:06:15.578Z,100978.06
2023-05-06T19:08:41.992Z,100976.33
2023-05-06T19:11:15.389Z,100975.30
2023-05-06T19:13:43.082Z,100975.77
2023-05-06T19:16:09.532Z,100975.19
2023-05-06T19:18:36.026Z,100974.61
2023-05-06T19:21:02.373Z,100972.27
2023-05-06T19:23:28.725Z,100969.42
2023-05-06T19:25:55.154Z,100966.45
2023-05-06T19:28:21.552Z,100964.74
2023-05-06T19:30:48.087Z,100963.65
2023-05-06T19:33:15.661Z,100963.11
2023-05-06T19:35:41.993Z,100959.58
2023-05-06T19:38:08.742Z,100957.02
2023-05-06T19:40:35.332Z,100955.75
2023-05-06T19:43:03.271Z,100949.38
2023-05-06T19:45:31.859Z,100948.59
2023-05-06T19:47:59.234Z,100948.93
2023-05-06T19:50:30.980Z,100949.36
2023-05-06T19:52:57.361Z,100955.39
2023-05-06T19:55:24.022Z,100955.25
2023-05-06T19:57:50.519Z,100953.02
2023-05-06T20:00:19.424Z,100956.75
2023-05-06T20:02:46.138Z,100956.10
2023-05-06T20:05:13.309Z,100956.96
2023-05-06T20:07:40.604Z,100964.85
2023-05-06T20:10:09.347Z,100964.44
2023-05-06T20:12:35.768Z,100965.94
2023-05-06T20:15:03.198Z,100965.91
2023-05-06T20:17:29.677Z,100962.20
2023-05-06T20:19:59.028Z,100964.17
2023-05-06T20:22:25.770Z,100964.41
2023-05-06T20:24:52.535Z,100964.67
2023-05-06T20:27:22.314Z,100967.85
2023-05-06T20:29:50.860Z,100970.08
2023-05-06T20:32:17.208Z,100970.64
2023-05-06T20:34:43.558Z,100967.69
2023-05-06T20:37:09.948Z,100968.15
2023-05-06T20:39:36.344Z,100968.91
2023-05-06T20:42:02.848Z,100971.84
2023-05-06T20:44:29.206Z,100970.96
2023-05-06T20:46:55.569Z,100967.70
2023-05-06T20:49:22.304Z,100967.66
2023-05-06T20:51:48.665Z,100961.89
2023-05-06T20:54:15.060Z,100962.89
2023-05-06T20:56:42.326Z,100961.80
2023-05-06T20:59:08.744Z,100959.86
2023-05-06T21:01:35.348Z,100963.59
2023-05-06T21:04:04.019Z,100966.30
2023-05-06T21:06:31.441Z,100971.62
2023-05-06T21:08:57.913Z,100966.56
2023-05-06T21:11:25.102Z,100965.03
2023-05-06T21:13:51.431Z,100963.84
2023-05-06T21:16:17.983Z,100965.50
2023-05-06T21:18:44.505Z,100964.59
2023-05-06T21:21:10.897Z,100964.85
2023-05-06T21:23:37.559Z,100967.70
2023-05-06T21:26:03.998Z,100973.74
2023-05-06T21:28:30.411Z,100972.98
2023-05-06T21:30:56.848Z,100970.70
2023-05-06T21:33:23.178Z,100972.09
2023-05-06T21:35:49.632Z,100973.48
2023-05-06T21:38:15.945Z,100978.00
2023-05-06T21:40:42.286Z,100982.39
2023-05-06T21:43:08.632Z,100984.10
2023-05-06T21:45:35.699Z,100986.89
2023-05-06T21:48:02.172Z,100983.56
2023-05-06T21:50:28.666Z,100979.98
2023-05-06T21:52:55.187Z,100980.27
2023-05-06T21:55:21.852Z,100979.27
2023-05-06T21:57:48.743Z,100977.58
2023-05-06T22:00:15.434Z,100972.77
2023-05-06T22:02:42.058Z,100978.16
2023-05-06T22:05:09.041Z,100977.16
2023-05-06T22:07:35.944Z,100977.84
2023-05-06T22:10:03.685Z,100980.33
2023-05-06T22:12:30.848Z,100985.56
2023-05-06T22:14:57.188Z,100985.73
2023-05-06T22:17:23.591Z,100987.95
2023-05-06T22:19:50.923Z,100989.34
2023-05-06T22:22:17.760Z,100989.23
2023-05-06T22:24:44.218Z,100988.48
2023-05-06T22:27:10.749Z,100984.77
2023-05-06T22:29:37.100Z,100987.27
2023-05-06T22:32:03.769Z,100986.55
2023-05-06T22:34:30.285Z,100989.34
2023-05-06T22:36:58.225Z,100993.32
2023-05-06T22:42:32.178Z,100994.57
2023-05-06T22:44:59.918Z,100994.48
2023-05-06T22:47:27.759Z,100998.00
2023-05-06T22:49:55.601Z,100990.98
2023-05-06T22:52:25.392Z,100992.55
2023-05-06T22:54:54.093Z,100991.45
2023-05-06T22:57:25.365Z,100988.00
2023-05-06T22:59:53.195Z,100991.08
2023-05-06T23:02:21.290Z,100985.27
2023-05-06T23:04:49.133Z,100986.27
2023-05-06T23:07:16.884Z,100984.97
2023-05-06T23:09:44.644Z,100984.77
2023-05-06T23:12:12.598Z,100986.77
2023-05-06T23:14:40.449Z,100987.27
2023-05-06T23:17:08.277Z,100989.71
2023-05-06T23:19:36.319Z,100991.54
2023-05-06T23:22:04.556Z,100995.50
2023-05-06T23:24:32.288Z,100995.69
2023-05-06T23:27:00.021Z,100996.52
2023-05-06T23:29:27.808Z,100999.19
2023-05-06T23:31:55.808Z,101002.17
2023-05-06T23:34:23.610Z,101006.77
2023-05-06T23:36:51.479Z,101007.71
2023-05-06T23:39:19.288Z,101010.08
2023-05-06T23:41:47.056Z,101010.86
2023-05-06T23:44:14.914Z,101012.77
2023-05-06T23:46:42.658Z,101011.69
2023-05-06T23:49:10.643Z,101010.97
2023-05-06T23:51:38.337Z,101010.13
2023-05-06T23:54:06.159Z,101013.30
2023-05-06T23:56:35.202Z,101011.92
2023-05-06T23:59:02.986Z,101009.34
